createdAt,value
2019-03-31T00:05:05.821Z,4.53
2019-03-31T00:10:10.628Z,4.46
2019-03-31T00:15:15.231Z,4.37
2019-03-31T00:20:20.435Z,4.47
2019-03-31T00:25:25.027Z,4.50
2019-03-31T00:30:29.682Z,4.45
2019-03-31T00:35:34.248Z,4.41
2019-03-31T00:40:38.807Z,4.30
2019-03-31T00:45:43.382Z,4.16
2019-03-31T00:50:47.960Z,4.13
2019-03-31T00:55:52.537Z,4.03
2019-03-31T01:00:59.127Z,4.00
2019-03-31T01:06:04.666Z,4.03
2019-03-31T01:11:15.508Z,3.95
2019-03-31T01:16:20.756Z,3.98
2019-03-31T01:21:25.329Z,4.16
2019-03-31T01:26:30.025Z,4.28
2019-03-31T01:31:34.901Z,4.55
2019-03-31T01:36:39.490Z,5.23
2019-03-31T01:41:44.068Z,5.43
2019-03-31T01:46:48.640Z,6.00
2019-03-31T01:51:53.202Z,6.19
2019-03-31T01:56:57.815Z,7.03
2019-03-31T02:02:05.028Z,7.33
2019-03-31T02:07:09.574Z,7.44
2019-03-31T02:12:14.177Z,7.41
2019-03-31T02:17:18.803Z,7.39
2019-03-31T02:22:23.385Z,7.54
2019-03-31T02:27:27.957Z,7.50
2019-03-31T02:32:32.541Z,7.78
2019-03-31T02:37:37.442Z,7.73
2019-03-31T02:42:42.388Z,7.41
2019-03-31T02:47:47.980Z,7.37
2019-03-31T02:52:52.573Z,7.08
2019-03-31T02:57:57.348Z,6.97
2019-03-31T03:03:03.059Z,6.80
2019-03-31T03:08:09.072Z,6.93
2019-03-31T03:13:14.977Z,7.02
2019-03-31T03:18:19.536Z,6.86
2019-03-31T03:23:24.207Z,6.59
2019-03-31T03:28:28.850Z,6.33
2019-03-31T03:33:33.454Z,6.00
2019-03-31T03:38:37.983Z,6.63
2019-03-31T03:43:54.919Z,6.49
2019-03-31T03:48:49.275Z,6.33
2019-03-31T03:53:53.864Z,6.18
2019-03-31T03:58:58.433Z,5.96
2019-03-31T04:04:04.909Z,5.69
2019-03-31T04:09:09.591Z,5.35
2019-03-31T04:14:14.141Z,5.13
2019-03-31T04:19:18.669Z,5.05
2019-03-31T04:24:23.561Z,4.97
2019-03-31T04:29:28.196Z,5.04
2019-03-31T04:34:32.742Z,5.42
2019-03-31T04:39:37.344Z,5.61
2019-03-31T04:44:41.968Z,5.82
2019-03-31T04:49:46.532Z,5.53
2019-03-31T04:54:51.139Z,5.65
2019-03-31T04:59:55.736Z,6.10
2019-03-31T05:05:00.470Z,6.32
2019-03-31T05:10:08.502Z,6.47
2019-03-31T05:15:13.126Z,6.69
2019-03-31T05:20:17.755Z,6.64
2019-03-31T05:25:22.297Z,6.76
2019-03-31T05:30:26.840Z,6.78
2019-03-31T05:35:31.444Z,6.93
2019-03-31T05:40:36.085Z,7.01
2019-03-31T05:45:40.719Z,7.26
2019-03-31T05:50:45.599Z,7.79
2019-03-31T05:55:50.196Z,7.92
2019-03-31T06:00:55.040Z,8.04
2019-03-31T06:05:59.647Z,7.72
2019-03-31T06:11:04.528Z,7.26
2019-03-31T06:16:09.175Z,7.16
2019-03-31T06:21:14.003Z,6.98
2019-03-31T06:26:18.561Z,6.95
2019-03-31T06:31:23.227Z,7.03
2019-03-31T06:36:27.818Z,6.93
2019-03-31T06:41:32.388Z,7.06
2019-03-31T06:46:36.990Z,7.28
2019-03-31T06:51:41.662Z,7.56
2019-03-31T06:56:47.177Z,7.91
2019-03-31T07:01:52.154Z,8.06
2019-03-31T07:06:56.863Z,8.39
2019-03-31T07:12:01.622Z,8.36
2019-03-31T07:17:06.193Z,8.50
2019-03-31T07:22:11.001Z,8.68
2019-03-31T07:27:15.637Z,8.57
2019-03-31T07:32:20.435Z,8.90
2019-03-31T07:37:25.031Z,9.07
2019-03-31T07:42:30.056Z,9.14
2019-03-31T07:47:34.875Z,9.17
2019-03-31T07:52:39.461Z,9.17
2019-03-31T07:57:44.195Z,10.12
2019-03-31T08:02:48.755Z,10.42
2019-03-31T08:07:53.353Z,9.90
2019-03-31T08:12:57.983Z,10.26
2019-03-31T08:18:20.575Z,10.07
2019-03-31T08:23:25.229Z,9.92
2019-03-31T08:28:29.848Z,9.82
2019-03-31T08:33:34.413Z,9.95
2019-03-31T08:38:39.011Z,10.01
2019-03-31T08:43:43.585Z,10.13
2019-03-31T08:48:48.209Z,9.93
2019-03-31T08:53:52.837Z,10.15
2019-03-31T08:58:57.456Z,10.90
2019-03-31T09:04:02.023Z,10.84
2019-03-31T09:09:07.998Z,10.96
2019-03-31T09:14:12.582Z,10.77
2019-03-31T09:19:17.229Z,10.10
2019-03-31T09:24:21.809Z,10.16
2019-03-31T09:29:26.356Z,10.36
2019-03-31T09:34:37.200Z,10.52
2019-03-31T09:39:41.754Z,10.37
2019-03-31T09:44:46.808Z,9.84
2019-03-31T09:49:57.554Z,9.48
2019-03-31T09:55:02.786Z,9.24
2019-03-31T10:00:08.194Z,9.55
2019-03-31T10:05:13.400Z,9.47
2019-03-31T10:10:36.994Z,9.57
2019-03-31T10:15:41.616Z,9.79
2019-03-31T10:20:46.254Z,9.96
2019-03-31T10:25:50.919Z,10.56
2019-03-31T10:30:55.497Z,10.84
2019-03-31T10:36:00.289Z,11.09
2019-03-31T10:41:04.945Z,11.31
2019-03-31T10:46:09.540Z,11.47
2019-03-31T10:51:14.166Z,11.12
2019-03-31T10:56:18.746Z,11.47
2019-03-31T11:01:23.379Z,13.44
2019-03-31T11:06:27.993Z,14.44
2019-03-31T11:11:32.621Z,13.62
2019-03-31T11:16:37.190Z,14.56
2019-03-31T11:21:41.859Z,13.39
2019-03-31T11:26:46.372Z,12.15
2019-03-31T11:31:51.281Z,11.94
2019-03-31T11:36:55.995Z,11.89
2019-03-31T11:42:00.710Z,11.71
2019-03-31T11:47:05.854Z,13.38
2019-03-31T11:52:10.467Z,12.85
2019-03-31T11:57:17.528Z,12.53
2019-03-31T12:02:27.497Z,13.53
2019-03-31T12:07:28.761Z,13.53
2019-03-31T12:12:33.488Z,12.62
2019-03-31T12:17:38.112Z,11.44
2019-03-31T12:22:42.735Z,11.20
2019-03-31T12:27:47.293Z,11.00
2019-03-31T12:32:51.897Z,12.59
2019-03-31T12:37:56.653Z,13.42
2019-03-31T12:43:01.254Z,14.20
2019-03-31T12:48:05.963Z,15.54
2019-03-31T12:53:10.621Z,14.78
2019-03-31T12:58:15.343Z,13.71
2019-03-31T13:03:20.209Z,12.55
2019-03-31T13:08:24.776Z,11.81
2019-03-31T13:13:29.447Z,12.10
2019-03-31T13:18:34.065Z,12.12
2019-03-31T13:23:38.989Z,11.83
2019-03-31T13:28:43.785Z,12.22
2019-03-31T13:33:49.412Z,13.62
2019-03-31T13:38:54.445Z,14.40
2019-03-31T13:43:59.001Z,13.56
2019-03-31T13:49:03.600Z,14.01
2019-03-31T13:54:08.217Z,13.48
2019-03-31T13:59:12.935Z,12.95
2019-03-31T14:04:17.490Z,12.96
2019-03-31T14:09:22.431Z,13.10
2019-03-31T14:14:27.004Z,13.62
2019-03-31T14:19:31.604Z,13.12
2019-03-31T14:24:36.487Z,13.12
2019-03-31T14:29:42.586Z,13.25
2019-03-31T14:34:47.287Z,12.98
2019-03-31T14:39:51.823Z,13.37
2019-03-31T14:44:56.412Z,13.51
2019-03-31T14:50:01.036Z,13.86
2019-03-31T14:55:05.802Z,13.44
2019-03-31T15:00:15.212Z,12.56
2019-03-31T15:05:16.780Z,12.29
2019-03-31T15:10:21.733Z,12.64
2019-03-31T15:15:26.387Z,12.67
2019-03-31T15:20:31.171Z,12.55
2019-03-31T15:25:35.862Z,12.66
2019-03-31T15:30:40.522Z,12.49
2019-03-31T15:35:45.162Z,12.09
2019-03-31T15:40:49.794Z,11.79
2019-03-31T15:45:54.407Z,11.98
2019-03-31T15:50:59.073Z,12.32
2019-03-31T15:56:03.772Z,11.94
2019-03-31T16:01:08.437Z,11.57
2019-03-31T16:06:14.202Z,11.14
2019-03-31T16:11:18.555Z,10.98
2019-03-31T16:16:22.786Z,10.81
2019-03-31T16:21:27.301Z,10.65
2019-03-31T16:26:32.480Z,10.59
2019-03-31T16:31:38.638Z,10.59
2019-03-31T16:36:42.895Z,10.66
2019-03-31T16:41:47.172Z,11.00
2019-03-31T16:46:51.546Z,10.90
2019-03-31T16:51:56.024Z,10.72
2019-03-31T16:57:00.296Z,10.61
2019-03-31T17:02:04.821Z,10.78
2019-03-31T17:07:09.057Z,10.39
2019-03-31T17:12:13.447Z,10.18
2019-03-31T17:17:17.701Z,9.78
2019-03-31T17:22:22.070Z,9.45
2019-03-31T17:27:26.309Z,9.09
2019-03-31T17:32:30.499Z,8.97
2019-03-31T17:37:34.631Z,8.86
2019-03-31T17:42:56.311Z,8.78
2019-03-31T17:48:09.470Z,8.43
2019-03-31T17:53:31.508Z,8.28
2019-03-31T17:58:53.339Z,8.03
2019-03-31T18:03:57.517Z,7.86
2019-03-31T18:09:01.942Z,7.92
2019-03-31T18:14:06.919Z,7.79
2019-03-31T18:19:11.172Z,7.66
2019-03-31T18:24:15.297Z,7.39
2019-03-31T18:29:19.598Z,7.48
2019-03-31T18:34:25.727Z,7.37
2019-03-31T18:39:29.849Z,7.28
2019-03-31T18:44:34.704Z,7.02
2019-03-31T18:49:42.675Z,6.80
2019-03-31T18:54:47.216Z,6.77
2019-03-31T18:59:51.566Z,6.65
2019-03-31T19:04:56.292Z,6.61
2019-03-31T19:10:01.315Z,6.38
2019-03-31T19:15:06.032Z,6.22
2019-03-31T19:20:10.993Z,6.13
2019-03-31T19:25:15.315Z,5.82
2019-03-31T19:30:19.653Z,5.45
2019-03-31T19:35:23.876Z,5.27
2019-03-31T19:40:28.149Z,5.33
2019-03-31T19:45:32.619Z,5.31
2019-03-31T19:50:37.616Z,5.20
2019-03-31T19:55:47.043Z,5.05
2019-03-31T20:00:59.567Z,4.72
2019-03-31T20:06:09.489Z,4.94
2019-03-31T20:11:57.849Z,4.90
2019-03-31T20:17:13.604Z,4.48
2019-03-31T20:22:21.700Z,4.11
2019-03-31T20:27:28.898Z,3.99
2019-03-31T20:32:35.890Z,3.79
2019-03-31T20:37:42.761Z,3.97
2019-03-31T20:43:16.069Z,4.73
2019-03-31T20:48:23.693Z,4.98
2019-03-31T20:53:33.978Z,4.86
2019-03-31T20:58:49.508Z,4.87
2019-03-31T21:03:58.707Z,4.61
2019-03-31T21:09:14.901Z,4.52
2019-03-31T21:14:25.560Z,4.36
2019-03-31T21:19:41.843Z,4.27
2019-03-31T21:24:51.409Z,4.24
2019-03-31T21:29:57.675Z,4.05
2019-03-31T21:35:03.599Z,3.89
2019-03-31T21:40:09.269Z,3.77
2019-03-31T21:45:15.300Z,3.55
2019-03-31T21:50:20.530Z,3.11
2019-03-31T21:55:27.191Z,2.61
2019-03-31T22:00:33.887Z,2.37
2019-03-31T22:05:38.514Z,2.27
2019-03-31T22:10:43.117Z,1.95
2019-03-31T22:15:47.188Z,1.56
2019-03-31T22:20:53.681Z,1.41
2019-03-31T22:25:59.192Z,1.26
2019-03-31T22:31:05.591Z,1.02
2019-03-31T22:36:12.852Z,0.78
2019-03-31T22:41:20.508Z,0.62
2019-03-31T22:46:28.763Z,0.36
2019-03-31T22:51:35.933Z,0.09
2019-03-31T22:56:42.637Z,0.02
2019-03-31T23:01:47.217Z,-0.05
2019-03-31T23:06:51.246Z,0.07
2019-03-31T23:11:55.259Z,0.11
2019-03-31T23:16:59.255Z,-0.04
2019-03-31T23:22:05.071Z,-0.29
2019-03-31T23:27:09.124Z,-0.57
2019-03-31T23:32:13.149Z,-0.80
2019-03-31T23:37:17.243Z,-1.03
2019-03-31T23:42:21.286Z,-1.24
2019-03-31T23:47:25.339Z,-1.40
2019-03-31T23:52:29.378Z,-1.51
2019-03-31T23:57:33.383Z,-1.66
